createdAt,value
2022-08-22T00:02:43.366Z,6.82
2022-08-22T00:05:13.354Z,8.15
2022-08-22T00:15:42.522Z,11.00
2022-08-22T00:26:03.698Z,11.20
2022-08-22T00:36:27.188Z,12.35
2022-08-22T00:46:46.490Z,11.10
2022-08-22T00:57:10.311Z,10.23
2022-08-22T01:07:51.163Z,11.52
2022-08-22T01:18:27.243Z,11.38
2022-08-22T01:28:47.079Z,10.32
2022-08-22T01:39:02.285Z,10.68
2022-08-22T01:49:13.619Z,11.35
2022-08-22T01:59:34.002Z,13.07
2022-08-22T02:09:49.925Z,10.45
2022-08-22T02:20:11.414Z,12.88
2022-08-22T02:30:22.784Z,13.25
2022-08-22T02:40:38.755Z,11.43
2022-08-22T02:50:47.985Z,10.98
2022-08-22T03:01:11.715Z,10.57
2022-08-22T03:11:22.581Z,10.93
2022-08-22T03:21:42.707Z,10.02
2022-08-22T03:32:08.615Z,11.05
2022-08-22T03:42:16.498Z,14.93
2022-08-22T03:52:59.721Z,12.43
2022-08-22T04:03:36.333Z,11.80
2022-08-22T04:14:16.930Z,12.30
2022-08-22T04:24:43.344Z,10.13
2022-08-22T04:35:00.682Z,14.32
2022-08-22T04:45:35.022Z,12.77
2022-08-22T04:55:57.971Z,12.85
2022-08-22T05:06:06.301Z,12.00
2022-08-22T05:16:13.076Z,19.10
2022-08-22T05:26:18.440Z,11.60
2022-08-22T05:36:29.370Z,13.68
2022-08-22T05:46:56.222Z,11.75
2022-08-22T05:57:14.369Z,12.05
2022-08-22T06:07:16.444Z,11.48
2022-08-22T06:17:27.269Z,10.38
2022-08-22T06:27:31.633Z,8.48
2022-08-22T06:37:39.138Z,13.82
2022-08-22T06:47:49.868Z,9.00
2022-08-22T06:58:04.863Z,12.98
2022-08-22T07:08:15.926Z,7.85
2022-08-22T07:18:21.590Z,9.07
2022-08-22T07:28:50.914Z,8.82
2022-08-22T07:39:22.541Z,6.93
2022-08-22T07:49:32.250Z,8.00
2022-08-22T07:59:38.103Z,5.88
2022-08-22T08:09:46.166Z,10.60
2022-08-22T08:19:54.360Z,7.47
2022-08-22T08:30:19.327Z,10.15
2022-08-22T08:40:34.562Z,8.40
2022-08-22T08:51:02.118Z,7.47
2022-08-22T09:01:27.603Z,7.80
2022-08-22T09:12:07.050Z,7.93
2022-08-22T09:22:17.785Z,7.22
2022-08-22T09:32:29.873Z,7.38
2022-08-22T09:42:46.426Z,6.13
2022-08-22T09:53:13.119Z,5.85
2022-08-22T10:03:27.322Z,8.20
2022-08-22T10:13:38.678Z,7.28
2022-08-22T10:24:02.406Z,5.82
2022-08-22T10:34:10.873Z,5.68
2022-08-22T10:44:20.814Z,5.93
2022-08-22T10:54:53.718Z,7.38
2022-08-22T11:05:24.636Z,6.18
2022-08-22T11:15:57.391Z,6.72
2022-08-22T11:26:33.569Z,5.55
2022-08-22T11:37:11.087Z,8.13
2022-08-22T11:47:24.190Z,7.97
2022-08-22T11:57:33.277Z,8.20
2022-08-22T12:07:50.532Z,9.65
2022-08-22T12:18:16.376Z,12.38
2022-08-22T12:28:45.386Z,8.48
2022-08-22T12:39:00.107Z,10.10
2022-08-22T12:49:23.756Z,7.40
2022-08-22T13:00:01.965Z,5.57
2022-08-22T13:10:18.754Z,7.28
2022-08-22T13:20:29.400Z,9.73
2022-08-22T13:30:43.830Z,9.40
2022-08-22T13:40:49.640Z,13.27
2022-08-22T13:51:14.871Z,8.52
2022-08-22T14:01:41.288Z,8.48
2022-08-22T14:11:50.593Z,9.27
2022-08-22T14:21:59.524Z,10.20
2022-08-22T14:32:22.541Z,7.35
2022-08-22T14:42:44.402Z,9.93
2022-08-22T14:53:06.936Z,9.20
2022-08-22T15:03:33.109Z,8.50
2022-08-22T15:13:37.281Z,9.18
2022-08-22T15:23:45.137Z,6.57
2022-08-22T15:34:09.379Z,8.75
2022-08-22T15:44:30.917Z,8.02
2022-08-22T15:54:51.250Z,8.88
2022-08-22T16:05:22.736Z,6.55
2022-08-22T16:15:56.721Z,8.18
2022-08-22T16:26:05.934Z,7.68
2022-08-22T16:36:18.112Z,8.38
2022-08-22T16:46:33.274Z,8.27
2022-08-22T16:56:54.313Z,10.23
2022-08-22T17:07:43.705Z,12.25
2022-08-22T17:18:14.095Z,8.07
2022-08-22T17:28:38.038Z,12.52
2022-08-22T17:38:54.404Z,7.90
2022-08-22T17:49:22.088Z,9.90
2022-08-22T17:59:28.051Z,10.73
2022-08-22T18:09:48.202Z,8.13
2022-08-22T18:20:07.514Z,10.65
2022-08-22T18:30:16.762Z,11.73
2022-08-22T18:40:50.204Z,9.70
2022-08-22T18:51:25.140Z,12.10
2022-08-22T19:01:55.605Z,11.27
2022-08-22T19:12:01.935Z,14.70
2022-08-22T19:22:36.668Z,12.52
2022-08-22T19:32:45.710Z,14.18
2022-08-22T19:42:50.106Z,13.75
2022-08-22T19:53:00.518Z,17.02
2022-08-22T20:03:14.769Z,11.95
2022-08-22T20:13:25.875Z,14.52
2022-08-22T20:23:32.616Z,13.68
2022-08-22T20:33:46.038Z,11.73
2022-08-22T20:43:53.227Z,14.55
2022-08-22T20:54:10.262Z,12.82
2022-08-22T21:04:21.176Z,16.15
2022-08-22T21:14:34.498Z,15.80
2022-08-22T21:24:36.584Z,11.48
2022-08-22T21:34:47.244Z,20.92
2022-08-22T21:45:30.843Z,20.27
2022-08-22T21:55:38.698Z,16.40
2022-08-22T22:05:46.640Z,20.15
2022-08-22T22:15:53.809Z,19.83
2022-08-22T22:25:57.493Z,16.13
2022-08-22T22:36:04.665Z,19.23
2022-08-22T22:46:11.579Z,20.33
2022-08-22T22:56:21.531Z,18.02
2022-08-22T23:06:32.499Z,18.35
2022-08-22T23:16:39.723Z,14.93
2022-08-22T23:26:44.509Z,19.70
2022-08-22T23:36:50.345Z,21.60
2022-08-22T23:46:52.767Z,20.80
2022-08-22T23:57:01.799Z,21.63
